METAR Data
IDs: Format: Raw Decoded Include TAF

Data at: 1852 UTC 26 Sep 2021

METAR for:KGGE (Georgetown Cnty, SC, US)
Text:KGGE 261835Z AUTO 06005KT 10SM CLR 26/13 A3009 RMK AO2
Temperature: 26.0°C ( 79°F)
Dewpoint: 13.0°C ( 55°F) [RH = 45%]
Pressure (altimeter):30.09 inches Hg (1019.0 mb)
Winds:from the ENE (60 degrees) at 6 MPH (5 knots; 2.6 m/s)
Visibility:10 or more sm (16+ km)
Ceiling:at least 12,000 feet AGL
Clouds:sky clear below 12,000 feet AGL
QC Flag:automated observation with no human augmentation

TAF for:KGGE (Georgetown Cnty, SC, US)
Text:No data found